Time,TemperatureF,DewpointF,PressureIn,WindDirection,WindDirectionDegrees,WindSpeedMPH,WindSpeedGustMPH,Humidity,HourlyPrecipIn,Conditions,Clouds,dailyrainin,SoftwareType,DateUTC
2013-07-14 00:07:00,71.0,68.0,30.25,WNW,300,0.0,-999.0,91,-99.99,,,0.00,weatherlink.com 1.10,2013-07-14 04:07:00,
2013-07-14 00:22:00,70.8,68.0,30.25,WNW,300,0.0,-999.0,91,-99.99,,,0.00,weatherlink.com 1.10,2013-07-14 04:22:00,
2013-07-14 00:37:00,70.6,68.0,30.25,WNW,300,0.0,-999.0,92,-99.99,,,0.00,weatherlink.com 1.10,2013-07-14 04:37:00,
2013-07-14 00:52:00,70.4,68.0,30.26,WNW,300,0.0,-999.0,92,-99.99,,,0.00,weatherlink.com 1.10,2013-07-14 04:52:00,
2013-07-14 01:07:00,70.2,68.0,30.26,WNW,300,0.0,-999.0,92,-99.99,,,0.00,weatherlink.com 1.10,2013-07-14 05:07:00,
2013-07-14 01:22:00,70.0,68.0,30.26,WNW,300,0.0,-999.0,92,-99.99,,,0.00,weatherlink.com 1.10,2013-07-14 05:22:00,
2013-07-14 01:37:00,69.8,67.0,30.26,WNW,300,0.0,-999.0,92,-99.99,,,0.00,weatherlink.com 1.10,2013-07-14 05:37:00,
2013-07-14 01:52:00,69.5,68.0,30.26,WNW,300,0.0,-999.0,93,-99.99,,,0.00,weatherlink.com 1.10,2013-07-14 05:52:00,
2013-07-14 02:07:00,69.3,67.0,30.26,WNW,300,0.0,-999.0,93,-99.99,,,0.00,weatherlink.com 1.10,2013-07-14 06:07:00,
2013-07-14 02:22:00,69.1,67.0,30.26,WNW,300,0.0,-999.0,93,-99.99,,,0.00,weatherlink.com 1.10,2013-07-14 06:22:00,
2013-07-14 02:37:00,68.9,67.0,30.25,WNW,300,0.0,-999.0,93,-99.99,,,0.00,weatherlink.com 1.10,2013-07-14 06:37:00,
2013-07-14 02:52:00,68.8,67.0,30.26,WNW,300,0.0,-999.0,93,-99.99,,,0.00,weatherlink.com 1.10,2013-07-14 06:52:00,
2013-07-14 03:07:00,68.8,67.0,30.25,WNW,300,0.0,-999.0,93,-99.99,,,0.00,weatherlink.com 1.10,2013-07-14 07:07:00,
2013-07-14 03:22:00,68.7,67.0,30.25,WNW,300,0.0,-999.0,94,-99.99,,,0.00,weatherlink.com 1.10,2013-07-14 07:22:00,
2013-07-14 03:37:00,68.5,67.0,30.25,WNW,300,0.0,-999.0,93,-99.99,,,0.00,weatherlink.com 1.10,2013-07-14 07:37:00,
2013-07-14 03:52:00,68.3,66.0,30.26,WNW,300,0.0,-999.0,93,-99.99,,,0.00,weatherlink.com 1.10,2013-07-14 07:52:00,
2013-07-14 04:07:00,68.1,66.0,30.25,WNW,300,0.0,-999.0,94,-99.99,,,0.00,weatherlink.com 1.10,2013-07-14 08:07:00,
2013-07-14 04:23:00,68.0,66.0,30.26,WNW,300,0.0,-999.0,94,-99.99,,,0.00,weatherlink.com 1.10,2013-07-14 08:23:00,
2013-07-14 04:38:00,68.0,66.0,30.27,WNW,300,0.0,-999.0,94,-99.99,,,0.00,weatherlink.com 1.10,2013-07-14 08:38:00,
2013-07-14 04:53:00,68.2,67.0,30.27,WNW,300,0.0,-999.0,94,-99.99,,,0.00,weatherlink.com 1.10,2013-07-14 08:53:00,
2013-07-14 05:08:00,68.6,67.0,30.27,WNW,300,0.0,-999.0,95,-99.99,,,0.00,weatherlink.com 1.10,2013-07-14 09:08:00,
2013-07-14 05:23:00,68.8,67.0,30.27,WNW,300,0.0,-999.0,95,-99.99,,,0.00,weatherlink.com 1.10,2013-07-14 09:23:00,
2013-07-14 05:38:00,69.2,68.0,30.28,WNW,300,0.0,-999.0,95,-99.99,,,0.00,weatherlink.com 1.10,2013-07-14 09:38:00,
2013-07-14 05:53:00,69.7,68.0,30.28,NE,46,0.0,-999.0,95,-99.99,,,0.00,weatherlink.com 1.10,2013-07-14 09:53:00,
2013-07-14 06:08:00,70.2,69.0,30.29,NE,46,0.0,-999.0,95,-99.99,,,0.00,weatherlink.com 1.10,2013-07-14 10:08:00,
2013-07-14 06:23:00,70.5,69.0,30.29,NE,46,0.0,-999.0,95,-99.99,,,0.00,weatherlink.com 1.10,2013-07-14 10:23:00,
2013-07-14 06:38:00,70.9,70.0,30.29,ENE,65,2.0,-999.0,96,-99.99,,,0.00,weatherlink.com 1.10,2013-07-14 10:38:00,
2013-07-14 06:53:00,71.0,70.0,30.30,ENE,60,0.0,-999.0,96,-99.99,,,0.00,weatherlink.com 1.10,2013-07-14 10:53:00,
2013-07-14 07:08:00,71.2,70.0,30.30,East,99,0.0,-999.0,96,-99.99,,,0.00,weatherlink.com 1.10,2013-07-14 11:08:00,
2013-07-14 07:23:00,71.5,70.0,30.30,NE,55,0.0,-999.0,96,-99.99,,,0.00,weatherlink.com 1.10,2013-07-14 11:23:00,
2013-07-14 07:38:00,72.0,71.0,30.30,NE,55,0.0,-999.0,96,-99.99,,,0.00,weatherlink.com 1.10,2013-07-14 11:38:00,
2013-07-14 07:53:00,72.7,72.0,30.30,NE,55,1.0,-999.0,96,-99.99,,,0.00,weatherlink.com 1.10,2013-07-14 11:53:00,
2013-07-14 08:08:00,73.5,72.0,30.30,ENE,59,0.0,-999.0,95,-99.99,,,0.00,weatherlink.com 1.10,2013-07-14 12:08:00,
2013-07-14 08:23:00,74.6,73.0,30.30,ENE,63,0.0,-999.0,94,-99.99,,,0.00,weatherlink.com 1.10,2013-07-14 12:23:00,
2013-07-14 08:38:00,75.7,74.0,30.31,ENE,69,0.0,-999.0,94,-99.99,,,0.00,weatherlink.com 1.10,2013-07-14 12:38:00,
2013-07-14 08:53:00,77.0,74.0,30.31,NW,321,0.0,-999.0,91,-99.99,,,0.00,weatherlink.com 1.10,2013-07-14 12:53:00,
2013-07-14 09:08:00,77.9,75.0,30.31,NW,322,0.0,-999.0,89,-99.99,,,0.00,weatherlink.com 1.10,2013-07-14 13:08:00,
2013-07-14 09:23:00,78.9,74.0,30.31,NW,321,0.0,-999.0,86,-99.99,,,0.00,weatherlink.com 1.10,2013-07-14 13:23:00,
2013-07-14 09:38:00,80.1,75.0,30.31,WNW,287,3.0,-999.0,84,-99.99,,,0.00,weatherlink.com 1.10,2013-07-14 13:38:00,
2013-07-14 09:53:00,80.5,74.0,30.31,WSW,242,1.0,-999.0,81,-99.99,,,0.00,weatherlink.com 1.10,2013-07-14 13:53:00,
2013-07-14 10:08:00,81.1,74.0,30.30,SSW,212,2.0,-999.0,78,-99.99,,,0.00,weatherlink.com 1.10,2013-07-14 14:08:00,
2013-07-14 10:23:00,81.2,74.0,30.30,WSW,243,0.0,-999.0,78,-99.99,,,0.00,weatherlink.com 1.10,2013-07-14 14:23:00,
2013-07-14 10:38:00,81.6,74.0,30.30,South,181,0.0,-999.0,77,-99.99,,,0.00,weatherlink.com 1.10,2013-07-14 14:38:00,
2013-07-14 10:53:00,83.2,74.0,30.30,SSW,204,3.0,-999.0,74,-99.99,,,0.00,weatherlink.com 1.10,2013-07-14 14:53:00,
2013-07-14 11:09:00,84.2,74.0,30.30,South,184,1.0,-999.0,72,-99.99,,,0.00,weatherlink.com 1.10,2013-07-14 15:09:00,
2013-07-14 11:24:00,85.3,74.0,30.30,SW,236,1.0,-999.0,69,-99.99,,,0.00,weatherlink.com 1.10,2013-07-14 15:24:00,
2013-07-14 11:39:00,86.7,74.0,30.30,SW,223,1.0,-999.0,67,-99.99,,,0.00,weatherlink.com 1.10,2013-07-14 15:39:00,
2013-07-14 11:54:00,86.9,74.0,30.30,SW,231,3.0,-999.0,65,-99.99,,,0.00,weatherlink.com 1.10,2013-07-14 15:54:00,
2013-07-14 12:09:00,86.5,74.0,30.30,WSW,239,1.0,-999.0,66,-99.99,,,0.00,weatherlink.com 1.10,2013-07-14 16:09:00,
2013-07-14 12:24:00,87.3,72.0,30.30,SW,229,2.0,-999.0,61,-99.99,,,0.00,weatherlink.com 1.10,2013-07-14 16:24:00,
2013-07-14 12:39:00,87.6,73.0,30.30,WSW,238,2.0,-999.0,63,-99.99,,,0.00,weatherlink.com 1.10,2013-07-14 16:39:00,
2013-07-14 12:54:00,88.0,73.0,30.29,SSW,206,3.0,-999.0,61,-99.99,,,0.00,weatherlink.com 1.10,2013-07-14 16:54:00,
2013-07-14 13:09:00,88.4,73.0,30.29,West,271,3.0,-999.0,61,-99.99,,,0.00,weatherlink.com 1.10,2013-07-14 17:09:00,
2013-07-14 13:24:00,89.1,74.0,30.28,SW,228,0.0,-999.0,62,-99.99,,,0.00,weatherlink.com 1.10,2013-07-14 17:24:00,
2013-07-14 13:39:00,89.2,73.0,30.28,SSW,212,1.0,-999.0,59,-99.99,,,0.00,weatherlink.com 1.10,2013-07-14 17:39:00,
2013-07-14 13:54:00,89.7,75.0,30.28,WSW,247,3.0,-999.0,63,-99.99,,,0.00,weatherlink.com 1.10,2013-07-14 17:54:00,
2013-07-14 14:09:00,90.4,74.0,30.28,South,176,5.0,-999.0,59,-99.99,,,0.00,weatherlink.com 1.10,2013-07-14 18:09:00,
2013-07-14 14:24:00,90.6,74.0,30.27,WSW,251,3.0,-999.0,59,-99.99,,,0.00,weatherlink.com 1.10,2013-07-14 18:24:00,
2013-07-14 14:39:00,91.2,75.0,30.27,SW,220,1.0,-999.0,59,-99.99,,,0.00,weatherlink.com 1.10,2013-07-14 18:39:00,
2013-07-14 14:54:00,92.2,75.0,30.27,SSW,199,0.0,-999.0,57,-99.99,,,0.00,weatherlink.com 1.10,2013-07-14 18:54:00,
2013-07-14 15:09:00,92.4,75.0,30.26,SW,228,3.0,-999.0,57,-99.99,,,0.00,weatherlink.com 1.10,2013-07-14 19:09:00,
2013-07-14 15:24:00,93.2,75.0,30.26,WSW,256,4.0,-999.0,56,-99.99,,,0.00,weatherlink.com 1.10,2013-07-14 19:24:00,
2013-07-14 15:39:00,92.9,74.0,30.25,SSW,194,1.0,-999.0,55,-99.99,,,0.00,weatherlink.com 1.10,2013-07-14 19:39:00,
2013-07-14 15:54:00,93.2,75.0,30.25,NNE,20,0.0,-999.0,56,-99.99,,,0.00,weatherlink.com 1.10,2013-07-14 19:54:00,
2013-07-14 16:00:00,93.4,74.8,30.25,SW,223,1.0,1.0,55,0.00,,,0.00,Wunderground v.1.15,2013-07-14 20:00:00,
2013-07-14 16:10:00,93.4,74.8,30.25,SW,232,2.0,2.0,55,0.00,,,0.00,Wunderground v.1.15,2013-07-14 20:10:00,
2013-07-14 16:15:00,93.4,74.8,30.25,West,265,1.0,2.0,55,0.00,,,0.00,Wunderground v.1.15,2013-07-14 20:15:00,
2013-07-14 16:20:00,93.3,74.2,30.25,SW,217,2.0,2.0,54,0.00,,,0.00,Wunderground v.1.15,2013-07-14 20:20:00,
2013-07-14 16:25:00,93.1,75.1,30.25,WSW,248,2.0,2.0,56,0.00,,,0.00,Wunderground v.1.15,2013-07-14 20:25:00,
2013-07-14 16:35:00,93.3,73.6,30.24,WSW,254,1.0,1.0,53,0.00,,,0.00,Wunderground v.1.15,2013-07-14 20:35:00,
2013-07-14 16:40:00,93.3,76.3,30.24,SSW,202,2.0,2.0,58,0.00,,,0.00,Wunderground v.1.15,2013-07-14 20:40:00,
2013-07-14 16:50:00,92.9,75.4,30.24,SW,229,1.0,6.0,57,0.00,,,0.00,Wunderground v.1.15,2013-07-14 20:50:00,
2013-07-14 16:55:00,92.9,75.0,30.24,SSW,198,1.0,-999.0,56,-99.99,,,0.00,weatherlink.com 1.10,2013-07-14 20:55:00,
2013-07-14 17:00:00,92.8,75.3,30.24,SW,229,2.0,6.0,57,0.00,,,0.00,Wunderground v.1.15,2013-07-14 21:00:00,
2013-07-14 17:10:00,93.4,75.9,30.24,SSE,154,0.0,6.0,57,0.00,,,0.00,Wunderground v.1.15,2013-07-14 21:10:00,
2013-07-14 17:11:00,93.5,76.0,30.24,South,178,1.0,-999.0,57,-99.99,,,0.00,weatherlink.com 1.10,2013-07-14 21:11:00,
2013-07-14 17:15:00,93.7,75.1,30.24,West,261,1.0,6.0,55,0.00,,,0.00,Wunderground v.1.15,2013-07-14 21:15:00,
2013-07-14 17:25:00,93.5,74.4,30.24,SW,229,2.0,6.0,54,0.00,,,0.00,Wunderground v.1.15,2013-07-14 21:25:00,
2013-07-14 17:26:00,93.3,74.0,30.24,SW,230,3.0,-999.0,53,-99.99,,,0.00,weatherlink.com 1.10,2013-07-14 21:26:00,
2013-07-14 17:30:00,92.9,73.8,30.24,SW,225,2.0,6.0,54,0.00,,,0.00,Wunderground v.1.15,2013-07-14 21:30:00,
2013-07-14 17:40:00,92.5,76.1,30.24,SW,217,2.0,2.0,59,0.00,,,0.00,Wunderground v.1.15,2013-07-14 21:40:00,
2013-07-14 17:41:00,92.5,76.0,30.23,WSW,248,0.0,-999.0,58,-99.99,,,0.00,weatherlink.com 1.10,2013-07-14 21:41:00,
2013-07-14 17:50:00,92.6,74.6,30.23,SW,229,1.0,6.0,56,0.00,,,0.00,Wunderground v.1.15,2013-07-14 21:50:00,
2013-07-14 17:56:00,92.4,74.0,30.23,WSW,240,0.0,-999.0,56,-99.99,,,0.00,weatherlink.com 1.10,2013-07-14 21:56:00,
2013-07-14 18:05:00,92.6,74.6,30.23,SSW,209,1.0,6.0,56,0.00,,,0.00,Wunderground v.1.15,2013-07-14 22:05:00,
2013-07-14 18:11:00,92.7,75.0,30.23,WSW,250,3.0,-999.0,56,-99.99,,,0.00,weatherlink.com 1.10,2013-07-14 22:11:00,
2013-07-14 18:20:00,92.5,75.0,30.23,South,180,1.0,1.0,57,0.00,,,0.00,Wunderground v.1.15,2013-07-14 22:20:00,
2013-07-14 18:27:00,92.5,76.0,30.23,WSW,256,1.0,-999.0,58,-99.99,,,0.00,weatherlink.com 1.10,2013-07-14 22:27:00,
2013-07-14 18:35:00,92.6,74.6,30.23,WSW,254,1.0,6.0,56,0.00,,,0.00,Wunderground v.1.15,2013-07-14 22:35:00,
2013-07-14 18:41:00,92.4,75.0,30.23,SW,215,0.0,-999.0,58,-99.99,,,0.00,weatherlink.com 1.10,2013-07-14 22:41:00,
2013-07-14 18:50:00,92.0,74.6,30.23,SSE,153,1.0,1.0,57,0.00,,,0.00,Wunderground v.1.15,2013-07-14 22:50:00,
2013-07-14 18:55:00,92.0,75.1,30.23,SSW,198,1.0,6.0,58,0.00,,,0.00,Wunderground v.1.15,2013-07-14 22:55:00,
2013-07-14 18:57:00,92.0,76.0,30.23,SSW,198,0.0,-999.0,59,-99.99,,,0.00,weatherlink.com 1.10,2013-07-14 22:57:00,
2013-07-14 19:05:00,92.0,75.1,30.23,SW,230,0.0,6.0,58,0.00,,,0.00,Wunderground v.1.15,2013-07-14 23:05:00,
2013-07-14 19:10:00,92.0,76.1,30.23,SW,230,0.0,6.0,60,0.00,,,0.00,Wunderground v.1.15,2013-07-14 23:10:00,
2013-07-14 19:12:00,92.0,76.0,30.23,SW,230,0.0,-999.0,60,-99.99,,,0.00,weatherlink.com 1.10,2013-07-14 23:12:00,
2013-07-14 19:20:00,91.9,75.0,30.22,SW,230,0.0,6.0,58,0.00,,,0.00,Wunderground v.1.15,2013-07-14 23:20:00,
2013-07-14 19:25:00,91.8,75.4,30.22,SW,230,0.0,6.0,59,0.00,,,0.00,Wunderground v.1.15,2013-07-14 23:25:00,
2013-07-14 19:27:00,91.8,76.0,30.22,SW,230,0.0,-999.0,60,-99.99,,,0.00,weatherlink.com 1.10,2013-07-14 23:27:00,
2013-07-14 19:35:00,91.8,76.9,30.22,SW,230,0.0,6.0,62,0.00,,,0.00,Wunderground v.1.15,2013-07-14 23:35:00,
2013-07-14 19:40:00,91.7,77.3,30.22,SW,230,0.0,6.0,63,0.00,,,0.00,Wunderground v.1.15,2013-07-14 23:40:00,
2013-07-14 19:42:00,91.7,77.0,30.22,SW,230,0.0,-999.0,63,-99.99,,,0.00,weatherlink.com 1.10,2013-07-14 23:42:00,
2013-07-14 19:50:00,91.6,77.7,30.22,SW,230,0.0,6.0,64,0.00,,,0.00,Wunderground v.1.15,2013-07-14 23:50:00,
2013-07-14 19:55:00,91.3,77.4,30.22,SW,230,0.0,6.0,64,0.00,,,0.00,Wunderground v.1.15,2013-07-14 23:55:00,
2013-07-14 19:57:00,91.1,77.0,30.22,SW,230,0.0,-999.0,64,-99.99,,,0.00,weatherlink.com 1.10,2013-07-14 23:57:00,
2013-07-14 20:05:00,90.7,76.8,30.23,SW,230,0.0,6.0,64,0.00,,,0.00,Wunderground v.1.15,2013-07-15 00:05:00,
2013-07-14 20:10:00,90.2,76.4,30.23,SW,230,0.0,6.0,64,0.00,,,0.00,Wunderground v.1.15,2013-07-15 00:10:00,
2013-07-14 20:12:00,90.1,77.0,30.23,SW,230,0.0,-999.0,65,-99.99,,,0.00,weatherlink.com 1.10,2013-07-15 00:12:00,
2013-07-14 20:20:00,88.8,76.0,30.23,SW,230,0.0,6.0,66,0.00,,,0.00,Wunderground v.1.15,2013-07-15 00:20:00,
2013-07-14 20:25:00,88.1,75.8,30.23,SW,230,0.0,6.0,67,0.00,,,0.00,Wunderground v.1.15,2013-07-15 00:25:00,
2013-07-14 20:28:00,87.8,76.0,30.23,SW,230,0.0,-999.0,67,-99.99,,,0.00,weatherlink.com 1.10,2013-07-15 00:28:00,
2013-07-14 20:35:00,87.0,75.2,30.23,SW,230,0.0,6.0,68,0.00,,,0.00,Wunderground v.1.15,2013-07-15 00:35:00,
2013-07-14 20:43:00,85.9,74.0,30.23,SW,230,0.0,-999.0,68,-99.99,,,0.00,weatherlink.com 1.10,2013-07-15 00:43:00,
2013-07-14 20:50:00,85.0,74.1,30.23,SW,230,0.0,6.0,70,0.00,,,0.00,Wunderground v.1.15,2013-07-15 00:50:00,
2013-07-14 20:55:00,84.4,74.0,30.23,SW,230,0.0,6.0,71,0.00,,,0.00,Wunderground v.1.15,2013-07-15 00:55:00,
2013-07-14 20:58:00,83.9,74.0,30.23,SW,230,0.0,-999.0,72,-99.99,,,0.00,weatherlink.com 1.10,2013-07-15 00:58:00,
2013-07-14 21:05:00,83.2,73.6,30.23,SW,230,0.0,6.0,73,0.00,,,0.00,Wunderground v.1.15,2013-07-15 01:05:00,
2013-07-14 21:13:00,82.3,74.0,30.23,SW,230,0.0,-999.0,75,-99.99,,,0.00,weatherlink.com 1.10,2013-07-15 01:13:00,
2013-07-14 21:20:00,81.6,73.3,30.24,SW,230,0.0,6.0,76,0.00,,,0.00,Wunderground v.1.15,2013-07-15 01:20:00,
2013-07-14 21:25:00,81.1,73.2,30.24,SW,230,0.0,6.0,77,0.00,,,0.00,Wunderground v.1.15,2013-07-15 01:25:00,
2013-07-14 21:28:00,80.8,73.0,30.24,SW,230,0.0,-999.0,77,-99.99,,,0.00,weatherlink.com 1.10,2013-07-15 01:28:00,
2013-07-14 21:35:00,80.3,73.2,30.24,SW,230,0.0,6.0,79,0.00,,,0.00,Wunderground v.1.15,2013-07-15 01:35:00,
2013-07-14 21:40:00,79.8,72.7,30.24,SW,230,0.0,6.0,79,0.00,,,0.00,Wunderground v.1.15,2013-07-15 01:40:00,
2013-07-14 21:44:00,79.4,73.0,30.24,SW,230,0.0,-999.0,80,-99.99,,,0.00,weatherlink.com 1.10,2013-07-15 01:44:00,
2013-07-14 21:50:00,79.0,72.7,30.24,SW,230,0.0,6.0,81,0.00,,,0.00,Wunderground v.1.15,2013-07-15 01:50:00,
2013-07-14 21:59:00,78.3,72.0,30.24,SW,230,0.0,-999.0,82,-99.99,,,0.00,weatherlink.com 1.10,2013-07-15 01:59:00,
2013-07-14 22:05:00,77.8,71.9,30.24,SW,230,0.0,6.0,82,0.00,,,0.00,Wunderground v.1.15,2013-07-15 02:05:00,
2013-07-14 22:10:00,77.5,71.9,30.25,SW,230,0.0,6.0,83,0.00,,,0.00,Wunderground v.1.15,2013-07-15 02:10:00,
2013-07-14 22:14:00,77.2,72.0,30.25,SW,230,0.0,-999.0,83,-99.99,,,0.00,weatherlink.com 1.10,2013-07-15 02:14:00,
2013-07-14 22:15:00,77.1,71.5,30.25,SW,230,0.0,6.0,83,0.00,,,0.00,Wunderground v.1.15,2013-07-15 02:15:00,
2013-07-14 22:25:00,76.7,71.5,30.25,SW,230,0.0,6.0,84,0.00,,,0.00,Wunderground v.1.15,2013-07-15 02:25:00,
2013-07-14 22:30:00,76.4,71.2,30.25,SW,230,0.0,6.0,84,0.00,,,0.00,Wunderground v.1.15,2013-07-15 02:30:00,
2013-07-14 22:35:00,76.2,71.0,30.25,SW,230,0.0,6.0,84,0.00,,,0.00,Wunderground v.1.15,2013-07-15 02:35:00,
2013-07-14 22:44:00,75.8,71.0,30.24,SW,230,0.0,-999.0,85,-99.99,,,0.00,weatherlink.com 1.10,2013-07-15 02:44:00,
2013-07-14 22:59:00,74.9,71.0,30.24,SW,230,0.0,-999.0,87,-99.99,,,0.00,weatherlink.com 1.10,2013-07-15 02:59:00,
2013-07-14 23:14:00,74.2,70.0,30.24,SW,230,0.0,-999.0,87,-99.99,,,0.00,weatherlink.com 1.10,2013-07-15 03:14:00,
2013-07-14 23:29:00,73.8,70.0,30.25,SW,230,0.0,-999.0,88,-99.99,,,0.00,weatherlink.com 1.10,2013-07-15 03:29:00,
2013-07-14 23:44:00,73.0,70.0,30.25,SW,230,0.0,-999.0,89,-99.99,,,0.00,weatherlink.com 1.10,2013-07-15 03:44:00,
2013-07-14 23:59:00,72.7,70.0,30.25,SW,230,0.0,-999.0,90,-99.99,,,0.00,weatherlink.com 1.10,2013-07-15 03:59:00,